Time;durP1;ratioP1;P1;durP2;ratioP2;P2;SDS_P1;SDS_P2;PMS_P1;PMS_P2;Temp;Humidity;BMP_temperature;BMP_pressure;BME280_temperature;BME280_humidity;BME280_pressure;Samples;Min_cycle;Max_cycle;Signal;HPM_P1;HPM_P2
2021/03/31 00:00:32;;;;;;;115.35;56.75;;;;;;;-0.13;70.49;102424.34;1749743;80;20931;-70
2021/03/31 00:03:03;;;;;;;126.10;57.83;;;;;;;-0.13;70.58;102423.05;1749512;82;22659;-71
2021/03/31 00:05:32;;;;;;;116.53;56.15;;;;;;;-0.16;70.47;102420.41;1749730;82;20947;-71
2021/03/31 00:08:00;;;;;;;103.72;55.90;;;;;;;-0.19;70.38;102419.09;1749995;82;21346;-71
2021/03/31 00:10:42;;;;;;;97.95;52.13;;;;;;;-0.21;70.56;102422.50;1741621;81;21485;-72
2021/03/31 00:13:12;;;;;;;95.03;49.60;;;;;;;-0.21;70.71;102417.77;1735810;82;20944;-71
2021/03/31 00:15:40;;;;;;;103.78;57.78;;;;;;;-0.23;70.71;102420.32;1735854;82;21352;-72
2021/03/31 00:18:12;;;;;;;94.40;50.98;;;;;;;-0.23;70.66;102419.03;1735747;81;20924;-71
2021/03/31 00:20:41;;;;;;;100.85;55.95;;;;;;;-0.27;70.69;102416.00;1735853;82;20900;-72
2021/03/31 00:23:13;;;;;;;96.35;52.78;;;;;;;-0.29;70.71;102419.38;1735803;82;20947;-72
2021/03/31 00:25:41;;;;;;;133.30;61.83;;;;;;;-0.31;70.83;102417.19;1735864;81;21102;-73
2021/03/31 00:28:10;;;;;;;116.33;54.77;;;;;;;-0.33;70.88;102417.63;1735802;82;22373;-70
2021/03/31 00:30:38;;;;;;;96.00;48.58;;;;;;;-0.36;70.87;102410.69;1735689;82;21498;-72
2021/03/31 00:33:07;;;;;;;88.47;46.35;;;;;;;-0.40;70.95;102406.76;1735876;81;21442;-70
2021/03/31 00:35:35;;;;;;;88.10;47.10;;;;;;;-0.47;71.01;102411.84;1735720;82;20952;-70
2021/03/31 00:38:06;;;;;;;84.20;47.25;;;;;;;-0.53;71.05;102411.75;1735747;82;20948;-71
2021/03/31 00:40:51;;;;;;;71.45;43.75;;;;;;;-0.55;71.17;102400.98;1735977;82;22240;-71
2021/03/31 00:43:22;;;;;;;78.15;42.67;;;;;;;-0.60;71.35;102400.91;1735657;81;20968;-72
2021/03/31 00:45:51;;;;;;;74.58;40.45;;;;;;;-0.61;71.28;102404.31;1735733;82;20948;-70
2021/03/31 00:48:21;;;;;;;72.53;41.30;;;;;;;-0.66;71.24;102402.96;1735727;81;20908;-70
2021/03/31 00:50:58;;;;;;;81.63;43.42;;;;;;;-0.69;71.27;102405.90;1735730;81;20952;-71
2021/03/31 00:53:42;;;;;;;75.60;44.53;;;;;;;-0.72;71.43;102403.29;1735867;82;22296;-71
2021/03/31 00:56:10;;;;;;;79.90;42.43;;;;;;;-0.69;71.77;102405.90;1735785;82;21481;-70
2021/03/31 00:58:41;;;;;;;81.42;43.68;;;;;;;-0.65;71.95;102407.25;1735783;82;21369;-71
2021/03/31 01:01:11;;;;;;;79.92;43.68;;;;;;;-0.60;71.96;102404.78;1735749;82;20952;-72
2021/03/31 01:03:39;;;;;;;84.77;43.02;;;;;;;-0.55;71.89;102396.69;1735785;82;21449;-71
2021/03/31 01:06:07;;;;;;;88.55;47.60;;;;;;;-0.52;71.77;102400.58;1735761;82;21380;-72
2021/03/31 01:08:36;;;;;;;78.37;42.50;;;;;;;-0.51;71.58;102398.47;1735660;82;21015;-72
2021/03/31 01:11:05;;;;;;;84.77;44.77;;;;;;;-0.53;71.22;102400.16;1735581;81;20948;-73
2021/03/31 01:14:01;;;;;;;87.53;45.03;;;;;;;-0.55;71.12;102398.41;1715310;82;21584;-72
2021/03/31 01:16:47;;;;;;;79.87;46.10;;;;;;;-0.57;71.14;102402.66;1710305;83;21019;-71
2021/03/31 01:19:42;;;;;;;94.25;49.77;;;;;;;-0.63;70.95;102399.56;1710484;83;21544;-72
2021/03/31 01:22:49;;;;;;;90.05;48.13;;;;;;;-0.66;71.01;102404.67;1710408;83;21023;-71
2021/03/31 01:25:54;;;;;;;104.80;51.63;;;;;;;-0.67;71.27;102404.22;1710628;83;21022;-71
2021/03/31 01:28:49;;;;;;;;;;;;;;;-0.67;71.44;102399.06;1712885;83;20970;-71
2021/03/31 01:31:29;;;;;;;131.97;65.27;;;;;;;-0.66;71.39;102400.38;1710625;83;20172;-73
2021/03/31 01:34:25;;;;;;;128.97;60.23;;;;;;;-0.64;71.47;102397.41;1710432;83;21329;-72
2021/03/31 01:36:53;;;;;;;103.55;51.13;;;;;;;-0.64;71.63;102393.55;1710616;83;21091;-71
2021/03/31 01:39:21;;;;;;;115.65;58.33;;;;;;;-0.60;71.40;102391.90;1710386;83;21015;-71
2021/03/31 01:41:51;;;;;;;111.50;50.78;;;;;;;-0.59;71.30;102396.63;1710419;83;20983;-72
2021/03/31 01:44:19;;;;;;;97.15;49.08;;;;;;;-0.57;71.25;102394.94;1710600;83;20999;-70
2021/03/31 01:46:54;;;;;;;85.10;47.10;;;;;;;-0.58;71.24;102388.89;1710406;83;21502;-71
2021/03/31 01:49:25;;;;;;;90.20;45.92;;;;;;;-0.56;71.06;102391.07;1710433;83;21101;-71
2021/03/31 01:51:58;;;;;;;86.60;44.93;;;;;;;-0.57;71.16;102400.09;1710457;83;21559;-70
2021/03/31 01:54:27;;;;;;;119.10;56.40;;;;;;;-0.61;71.07;102394.44;1735399;82;21027;-71
2021/03/31 01:56:55;;;;;;;119.22;55.48;;;;;;;-0.70;71.20;102396.45;1735886;82;21446;-72
2021/03/31 01:59:23;;;;;;;120.65;58.83;;;;;;;-0.77;71.30;102394.63;1735806;82;22286;-71
2021/03/31 02:01:55;;;;;;;86.60;45.05;;;;;;;-0.90;71.65;102394.85;1735714;81;20963;-71
2021/03/31 02:04:23;;;;;;;77.75;43.60;;;;;;;-1.00;71.87;102387.81;1735773;82;21023;-71
2021/03/31 02:06:52;;;;;;;74.85;42.78;;;;;;;-1.08;72.25;102388.55;1735645;82;21505;-71
2021/03/31 02:09:21;;;;;;;74.07;41.48;;;;;;;-1.09;72.41;102389.80;1735713;82;20904;-71
2021/03/31 02:11:50;;;;;;;74.45;41.68;;;;;;;-1.08;72.49;102388.98;1748151;81;21816;-71
2021/03/31 02:14:19;;;;;;;75.12;43.05;;;;;;;-1.06;72.49;102395.03;1749640;82;20959;-71
2021/03/31 02:16:49;;;;;;;81.92;46.00;;;;;;;-1.01;72.38;102393.38;1749768;82;21367;-70
2021/03/31 02:19:18;;;;;;;73.80;42.62;;;;;;;-1.00;72.24;102391.27;1749657;82;21488;-72
2021/03/31 02:21:48;;;;;;;66.70;39.92;;;;;;;-0.96;72.11;102398.18;1749803;82;20955;-73
2021/03/31 02:24:18;;;;;;;69.15;41.92;;;;;;;-0.97;72.25;102400.33;1749754;82;22403;-73
2021/03/31 02:26:48;;;;;;;70.90;39.60;;;;;;;-0.95;72.17;102396.07;1749651;82;21038;-72
2021/03/31 02:29:16;;;;;;;74.20;40.78;;;;;;;-0.94;72.23;102399.50;1749665;82;21014;-72
2021/03/31 02:31:45;;;;;;;76.62;42.88;;;;;;;-0.89;72.20;102395.28;1749853;82;20971;-73
2021/03/31 02:34:15;;;;;;;76.67;44.93;;;;;;;-0.86;72.30;102395.35;1749980;82;21050;-72
2021/03/31 02:36:43;;;;;;;63.50;38.33;;;;;;;-0.80;72.44;102393.28;1749988;80;22294;-72
2021/03/31 02:39:12;;;;;;;72.17;40.00;;;;;;;-0.72;72.57;102391.27;1749783;80;21501;-74
2021/03/31 02:41:45;;;;;;;61.40;37.75;;;;;;;-0.67;72.80;102387.47;1722634;82;21018;-74
2021/03/31 02:44:14;;;;;;;60.78;39.05;;;;;;;-0.57;72.82;102394.94;1749835;82;21545;-72
2021/03/31 02:46:44;;;;;;;61.75;40.33;;;;;;;-0.51;72.95;102393.71;1723209;82;21034;-71
2021/03/31 02:49:13;;;;;;;73.85;43.35;;;;;;;-0.44;73.00;102395.13;1749949;82;21364;-72
2021/03/31 02:51:41;;;;;;;70.47;43.30;;;;;;;-0.39;72.99;102396.91;1749786;80;20955;-72
2021/03/31 02:54:10;;;;;;;73.83;45.20;;;;;;;-0.33;72.89;102396.57;1749901;80;21373;-71
2021/03/31 02:56:41;;;;;;;73.02;42.48;;;;;;;-0.30;72.92;102391.88;1749830;82;21480;-72
2021/03/31 02:59:10;;;;;;;73.05;40.20;;;;;;;-0.27;72.79;102386.35;1749894;82;20951;-72
2021/03/31 03:01:39;;;;;;;66.07;42.13;;;;;;;-0.22;72.79;102385.13;1749855;82;21176;-71
2021/03/31 03:04:08;;;;;;;69.82;43.30;;;;;;;-0.23;72.92;102380.80;1749838;82;21006;-72
2021/03/31 03:06:36;;;;;;;79.75;46.68;;;;;;;-0.18;73.03;102381.71;1749828;82;21560;-72
2021/03/31 03:09:07;;;;;;;78.70;47.30;;;;;;;-0.17;72.93;102378.30;1749795;82;21019;-72
2021/03/31 03:11:36;;;;;;;98.27;54.95;;;;;;;-0.13;72.88;102372.34;1740591;80;21023;-70
2021/03/31 03:14:07;;;;;;;99.25;54.05;;;;;;;-0.12;72.51;102367.61;1735872;81;21928;-72
2021/03/31 03:16:36;;;;;;;84.92;50.35;;;;;;;-0.12;72.06;102362.45;1735827;82;20948;-71
2021/03/31 03:19:07;;;;;;;92.27;54.20;;;;;;;-0.13;71.74;102362.03;1693053;82;21568;-72
2021/03/31 03:21:37;;;;;;;106.03;59.23;;;;;;;-0.17;71.66;102354.23;1735796;82;21581;-71
2021/03/31 03:24:08;;;;;;;108.83;59.03;;;;;;;-0.19;71.52;102350.77;1735867;82;21457;-71
2021/03/31 03:26:37;;;;;;;109.92;62.50;;;;;;;-0.24;71.46;102362.31;1735830;82;21266;-72
2021/03/31 03:29:06;;;;;;;123.40;66.92;;;;;;;-0.25;71.44;102357.99;1735753;82;21000;-74
2021/03/31 03:31:37;;;;;;;128.82;71.92;;;;;;;-0.28;71.41;102360.55;1735856;82;20995;-72
2021/03/31 03:34:07;;;;;;;112.68;58.35;;;;;;;-0.28;71.37;102356.25;1735741;82;21012;-72
2021/03/31 03:36:44;;;;;;;103.38;54.15;;;;;;;-0.30;71.46;102350.20;1735987;82;21497;-73
2021/03/31 03:39:12;;;;;;;100.35;56.02;;;;;;;-0.31;71.45;102351.06;1735880;82;21206;-73
2021/03/31 03:41:40;;;;;;;96.42;51.95;;;;;;;-0.32;71.47;102350.60;1735759;81;21358;-72
2021/03/31 03:44:08;;;;;;;90.87;48.33;;;;;;;-0.31;71.43;102346.30;1715094;82;21485;-72
2021/03/31 03:46:37;;;;;;;77.85;47.75;;;;;;;-0.36;71.39;102341.09;1735830;82;21442;-73
2021/03/31 03:49:05;;;;;;;98.22;49.88;;;;;;;-0.40;71.46;102343.61;1735898;82;21046;-72
2021/03/31 03:51:33;;;;;;;99.60;54.20;;;;;;;-0.46;71.62;102349.56;1735823;82;21445;-72
2021/03/31 03:54:10;;;;;;;103.25;52.10;;;;;;;-0.48;71.75;102341.80;1735696;81;20916;-72
2021/03/31 03:56:38;;;;;;;91.75;52.53;;;;;;;-0.48;71.92;102335.36;1735927;82;21358;-70
2021/03/31 03:59:22;;;;;;;94.37;50.63;;;;;;;-0.44;71.82;102335.86;1735804;81;20999;-70
2021/03/31 04:01:51;;;;;;;86.20;45.23;;;;;;;-0.38;71.77;102338.05;1735759;81;20956;-73
2021/03/31 04:04:20;;;;;;;66.53;42.30;;;;;;;-0.27;71.79;102342.92;1735906;81;22303;-72
2021/03/31 04:06:48;;;;;;;78.78;43.33;;;;;;;-0.16;71.51;102351.66;1735779;82;20959;-73
2021/03/31 04:09:17;;;;;;;80.85;47.03;;;;;;;-0.04;71.39;102354.83;1735863;82;20951;-74
2021/03/31 04:11:45;;;;;;;74.00;44.48;;;;;;;0.09;71.03;102354.12;1741285;80;20956;-72
2021/03/31 04:14:14;;;;;;;77.27;46.35;;;;;;;0.21;70.77;102350.81;1735984;81;21397;-72
2021/03/31 04:16:44;;;;;;;78.05;46.35;;;;;;;0.33;70.52;102348.34;1735731;82;21437;-72
2021/03/31 04:19:15;;;;;;;82.53;46.33;;;;;;;0.43;70.01;102352.33;1691666;82;21331;-71
2021/03/31 04:21:42;;;;;;;86.60;51.37;;;;;;;0.46;69.67;102347.19;1735930;82;20946;-73
2021/03/31 04:24:13;;;;;;;102.32;54.03;;;;;;;0.48;69.23;102342.48;1735700;82;20959;-72
2021/03/31 04:26:41;;;;;;;91.60;50.17;;;;;;;0.47;68.98;102345.03;1735938;82;20935;-74
2021/03/31 04:29:11;;;;;;;86.42;46.65;;;;;;;0.44;68.88;102345.02;1735911;82;21790;-72
2021/03/31 04:31:39;;;;;;;82.80;47.83;;;;;;;0.40;68.90;102347.58;1735898;82;20951;-77
2021/03/31 04:34:08;;;;;;;77.90;45.48;;;;;;;0.44;69.11;102344.58;1715209;82;20912;-78
2021/03/31 04:36:38;;;;;;;84.62;45.08;;;;;;;0.54;69.24;102343.83;1735777;82;20932;-77
2021/03/31 04:39:06;;;;;;;77.97;43.60;;;;;;;0.71;69.32;102337.54;1735824;81;20991;-76
2021/03/31 04:41:36;;;;;;;73.35;42.15;;;;;;;0.96;69.32;102340.31;1735804;81;21399;-76
2021/03/31 04:44:06;;;;;;;74.77;43.10;;;;;;;1.21;69.11;102336.19;1735776;81;20975;-74
2021/03/31 04:46:35;;;;;;;60.90;39.30;;;;;;;1.53;68.70;102336.78;1735872;82;20964;-75
2021/03/31 04:49:04;;;;;;;66.25;39.85;;;;;;;1.90;68.30;102333.94;1735782;82;21039;-74
2021/03/31 04:51:32;;;;;;;68.90;40.10;;;;;;;2.39;67.51;102333.21;1735798;81;20893;-76
2021/03/31 04:54:00;;;;;;;60.12;39.90;;;;;;;2.87;66.54;102335.41;1735982;82;21382;-75
2021/03/31 04:56:28;;;;;;;52.17;37.23;;;;;;;3.38;65.49;102332.72;1735790;82;20951;-77
2021/03/31 04:58:56;;;;;;;72.45;37.00;;;;;;;3.91;64.49;102329.96;1736161;82;21028;-77
2021/03/31 05:01:24;;;;;;;64.40;37.70;;;;;;;4.45;63.13;102332.24;1735770;81;20959;-75
2021/03/31 05:03:53;;;;;;;60.65;40.20;;;;;;;4.93;61.85;102326.66;1735677;82;20936;-76
2021/03/31 05:06:21;;;;;;;62.55;40.15;;;;;;;5.37;60.76;102329.27;1735837;81;21378;-76
2021/03/31 05:08:49;;;;;;;84.30;40.25;;;;;;;5.74;59.38;102321.90;1735770;82;20968;-76
2021/03/31 05:11:18;;;;;;;51.18;37.38;;;;;;;6.11;58.49;102320.57;1735607;82;21668;-75
2021/03/31 05:13:46;;;;;;;50.95;36.65;;;;;;;6.52;57.71;102327.79;1745259;81;21562;-78
2021/03/31 05:16:16;;;;;;;51.80;36.83;;;;;;;6.92;56.97;102332.36;1749728;82;21034;-77
2021/03/31 05:18:44;;;;;;;59.95;38.00;;;;;;;7.35;55.51;102332.88;1749698;81;21380;-77
2021/03/31 05:21:12;;;;;;;49.48;34.35;;;;;;;7.69;54.44;102326.98;1749574;82;21062;-77
2021/03/31 05:23:40;;;;;;;51.77;35.05;;;;;;;8.00;53.87;102326.34;1749677;80;20939;-78
2021/03/31 05:26:10;;;;;;;48.85;34.55;;;;;;;8.34;52.87;102338.23;1749658;82;20931;-80
2021/03/31 05:28:39;;;;;;;54.80;35.73;;;;;;;8.59;51.74;102337.23;1749691;81;20955;-77
2021/03/31 05:31:07;;;;;;;47.95;31.82;;;;;;;8.80;51.04;102333.21;1749596;80;21206;-76
2021/03/31 05:33:35;;;;;;;40.65;28.85;;;;;;;8.99;51.23;102330.16;1749613;82;20991;-76
2021/03/31 05:36:04;;;;;;;36.48;26.87;;;;;;;9.17;50.84;102330.11;1749695;82;21010;-76
2021/03/31 05:38:33;;;;;;;43.38;28.67;;;;;;;9.37;50.63;102333.50;1722692;82;20955;-77
2021/03/31 05:41:01;;;;;;;45.17;30.82;;;;;;;9.55;50.25;102329.06;1749717;82;20960;-78
2021/03/31 05:43:29;;;;;;;42.15;28.87;;;;;;;9.82;49.50;102322.63;1749793;82;21934;-78
2021/03/31 05:45:58;;;;;;;39.85;28.77;;;;;;;10.16;48.38;102315.47;1750034;81;20999;-79
2021/03/31 05:48:27;;;;;;;37.67;27.35;;;;;;;10.50;47.61;102308.33;1749892;82;21038;-77
2021/03/31 05:50:59;;;;;;;32.10;23.77;;;;;;;10.88;46.99;102299.62;1749895;80;21007;-77
2021/03/31 05:53:28;;;;;;;29.85;21.50;;;;;;;11.19;46.23;102304.66;1749992;80;21034;-78
2021/03/31 05:55:56;;;;;;;28.92;21.87;;;;;;;11.45;45.98;102297.59;1749990;80;21351;-78
2021/03/31 05:58:24;;;;;;;27.32;19.23;;;;;;;11.72;45.01;102290.48;1749718;82;21434;-77
2021/03/31 06:00:52;;;;;;;26.40;18.65;;;;;;;11.94;44.47;102290.09;1749774;82;21018;-78
2021/03/31 06:03:23;;;;;;;24.37;19.87;;;;;;;12.20;43.99;102281.61;1749723;82;20943;-78
2021/03/31 06:05:51;;;;;;;28.55;17.57;;;;;;;12.46;43.82;102225.30;1722992;82;20939;-79
2021/03/31 06:08:19;;;;;;;29.63;18.07;;;;;;;12.82;43.12;102286.05;1749810;80;21368;-79
2021/03/31 06:10:47;;;;;;;28.75;18.30;;;;;;;13.18;42.33;102283.20;1749697;81;20994;-78
2021/03/31 06:13:16;;;;;;;25.32;16.73;;;;;;;13.70;40.81;102286.16;1744653;81;20975;-77
2021/03/31 06:15:45;;;;;;;24.43;16.27;;;;;;;13.70;40.81;102286.16;1735634;82;20967;-77
2021/03/31 06:18:16;;;;;;;21.33;16.15;;;;;;;13.85;40.29;102288.52;1735675;81;21062;-74
2021/03/31 06:21:00;;;;;;;25.08;17.65;;;;;;;13.95;41.20;102275.30;1735761;82;21431;-73
2021/03/31 06:26:41;;;;;;;24.47;14.80;;;;;;;14.54;39.56;102289.59;1847844;76;22130;-74
2021/03/31 06:29:12;;;;;;;19.52;14.98;;;;;;;14.63;39.20;102295.33;1817935;77;21336;-74
2021/03/31 06:31:46;;;;;;;25.08;13.58;;;;;;;14.85;38.87;102291.58;1817987;77;21371;-73
2021/03/31 06:34:25;;;;;;;18.73;13.03;;;;;;;14.99;38.11;102289.09;1817979;79;20895;-75
2021/03/31 06:36:58;;;;;;;18.90;14.55;;;;;;;15.01;38.30;102291.19;1818026;79;20923;-73
2021/03/31 06:39:35;;;;;;;20.37;13.85;;;;;;;15.13;38.20;102270.72;1815676;79;21310;-74
2021/03/31 06:42:14;;;;;;;19.75;15.10;;;;;;;15.22;37.64;102276.46;1785795;80;20940;-75
2021/03/31 06:44:55;;;;;;;20.15;14.35;;;;;;;15.30;37.91;102278.23;1785299;80;21871;-72
2021/03/31 06:47:31;;;;;;;19.12;12.15;;;;;;;15.56;38.35;102275.48;1784572;80;20954;-72
2021/03/31 06:50:00;;;;;;;17.48;12.05;;;;;;;15.88;36.95;102272.91;1785836;80;20962;-74
2021/03/31 06:52:28;;;;;;;18.55;12.30;;;;;;;16.04;37.30;102259.66;1786011;80;21009;-73
2021/03/31 06:55:02;;;;;;;21.60;13.70;;;;;;;16.23;36.58;102257.68;1785889;79;20946;-72
2021/03/31 06:57:34;;;;;;;17.05;12.82;;;;;;;16.36;36.07;102261.77;1785950;80;21361;-74
2021/03/31 07:00:13;;;;;;;13.83;12.40;;;;;;;16.56;35.91;102257.95;1785783;80;20950;-74
2021/03/31 07:02:43;;;;;;;15.28;12.35;;;;;;;16.83;35.38;102255.96;1785697;80;20994;-74
2021/03/31 07:05:14;;;;;;;18.60;14.10;;;;;;;16.91;35.20;102257.69;1785635;80;20958;-75
2021/03/31 07:07:42;;;;;;;21.17;11.88;;;;;;;17.03;35.20;102254.75;1755640;80;21013;-74
2021/03/31 07:10:16;;;;;;;15.90;12.98;;;;;;;17.13;35.03;102247.95;1785705;80;21267;-73
2021/03/31 07:12:48;;;;;;;16.52;12.88;;;;;;;17.08;34.98;102244.27;1785691;79;20950;-74
2021/03/31 07:15:22;;;;;;;26.93;14.23;;;;;;;17.06;34.48;102237.36;1785829;80;20926;-74
2021/03/31 07:17:58;;;;;;;14.23;12.13;;;;;;;16.94;34.82;102241.14;1785738;80;20907;-75
2021/03/31 07:20:25;;;;;;;12.90;11.70;;;;;;;17.10;34.55;102232.25;1785832;79;21327;-74
2021/03/31 07:22:54;;;;;;;20.43;13.70;;;;;;;17.05;34.96;102232.53;1785813;80;22102;-75
2021/03/31 07:25:23;;;;;;;18.55;12.45;;;;;;;17.17;35.13;102225.12;1790205;79;20978;-74
2021/03/31 07:27:53;;;;;;;12.10;10.90;;;;;;;17.21;34.45;102219.17;1797701;78;21013;-74
2021/03/31 07:30:22;;;;;;;14.87;10.45;;;;;;;17.41;34.58;102217.92;1797738;79;21009;-74
2021/03/31 07:33:01;;;;;;;15.35;11.08;;;;;;;17.49;34.19;102215.61;1794870;79;20930;-73
2021/03/31 07:35:34;;;;;;;11.70;10.50;;;;;;;17.57;34.29;102210.67;1797833;79;22127;-75
2021/03/31 07:38:04;;;;;;;11.70;10.43;;;;;;;17.82;33.96;102205.14;1797128;79;21467;-75
2021/03/31 07:40:34;;;;;;;10.38;8.63;;;;;;;18.08;33.39;102200.77;1797287;79;20934;-72
2021/03/31 07:43:13;;;;;;;9.85;8.80;;;;;;;18.27;32.96;102201.70;1797117;79;20946;-76
2021/03/31 07:45:45;;;;;;;9.50;8.48;;;;;;;18.17;32.77;102202.81;1797172;79;20969;-75
2021/03/31 07:48:14;;;;;;;10.58;8.75;;;;;;;18.09;33.50;102197.15;1797286;78;21506;-77
2021/03/31 07:50:43;;;;;;;15.68;9.63;;;;;;;18.18;33.58;102200.52;1770937;79;21492;-75
2021/03/31 07:53:13;;;;;;;10.98;9.00;;;;;;;18.44;33.32;102196.11;1797103;79;21013;-75
2021/03/31 07:55:47;;;;;;;10.95;8.43;;;;;;;18.68;33.07;102197.20;1797077;79;20946;-75
2021/03/31 07:58:20;;;;;;;;;;;;;;;18.78;32.28;102188.98;1799756;79;20980;-74
2021/03/31 08:00:56;;;;;;;13.08;8.45;;;;;;;18.74;32.77;102192.77;1797213;79;21357;-76
2021/03/31 08:03:29;;;;;;;14.05;8.65;;;;;;;18.63;32.80;102191.72;1797113;79;20958;-77
2021/03/31 08:06:05;;;;;;;10.15;8.65;;;;;;;18.58;33.02;102189.84;1797178;78;21037;-77
2021/03/31 08:08:50;;;;;;;10.30;8.55;;;;;;;18.79;33.02;102189.36;1797124;78;20910;-76
2021/03/31 08:11:50;;;;;;;11.20;8.43;;;;;;;19.03;32.12;102166.82;1796783;79;21021;-77
2021/03/31 08:14:30;;;;;;;9.25;7.30;;;;;;;19.07;32.55;102180.77;1797137;79;21360;-76
2021/03/31 08:17:01;;;;;;;8.98;6.78;;;;;;;19.16;31.85;102174.78;1797000;79;21041;-77
2021/03/31 08:19:33;;;;;;;8.88;7.97;;;;;;;19.22;31.69;102167.21;1797067;79;21057;-76
2021/03/31 08:22:29;;;;;;;9.98;6.72;;;;;;;19.16;32.36;102162.81;1797119;78;21412;-76
2021/03/31 08:25:14;;;;;;;11.20;7.55;;;;;;;19.23;31.83;102159.62;1795862;78;21574;-76
2021/03/31 08:28:01;;;;;;;8.97;8.03;;;;;;;19.19;31.77;102163.45;1785434;80;21447;-77
2021/03/31 08:30:29;;;;;;;15.20;9.25;;;;;;;19.25;32.54;102150.17;1784884;79;20966;-76
2021/03/31 08:32:57;;;;;;;10.03;8.40;;;;;;;19.22;31.88;102151.25;1785126;79;21674;-76
2021/03/31 08:35:28;;;;;;;8.48;7.55;;;;;;;19.22;31.85;102150.41;1785083;79;21486;-76
2021/03/31 08:37:57;;;;;;;9.68;8.03;;;;;;;19.40;32.04;102148.22;1785071;79;20927;-76
2021/03/31 08:40:31;;;;;;;12.35;7.70;;;;;;;19.49;31.74;102149.36;1785219;79;21392;-75
2021/03/31 08:43:02;;;;;;;11.10;7.42;;;;;;;19.61;31.46;102146.66;1784896;79;20994;-73
2021/03/31 08:45:38;;;;;;;9.58;7.72;;;;;;;19.74;31.04;102141.28;1785152;80;21009;-74
2021/03/31 08:48:11;;;;;;;9.78;7.62;;;;;;;19.61;31.21;102139.16;1785023;79;20934;-72
2021/03/31 08:50:41;;;;;;;7.80;7.05;;;;;;;19.16;31.67;102138.87;1785228;79;20974;-72
2021/03/31 08:53:11;;;;;;;8.60;7.83;;;;;;;18.92;32.14;102135.70;1785036;80;21358;-75
2021/03/31 08:55:40;;;;;;;12.18;7.65;;;;;;;18.74;31.97;102136.95;1785080;80;21085;-74
2021/03/31 08:58:11;;;;;;;10.28;7.60;;;;;;;18.56;33.49;102140.42;1785004;80;21045;-73
2021/03/31 09:00:47;;;;;;;9.75;7.55;;;;;;;18.61;33.81;102120.56;1785059;79;20994;-72
2021/03/31 09:03:16;;;;;;;9.28;8.03;;;;;;;18.89;32.80;102115.97;1785126;80;20915;-75
2021/03/31 09:06:01;;;;;;;10.48;7.72;;;;;;;19.12;32.58;102116.12;1785045;79;21387;-72
2021/03/31 09:08:30;;;;;;;8.48;7.60;;;;;;;19.18;32.67;102110.36;1784935;80;21021;-72
2021/03/31 09:11:04;;;;;;;11.48;7.60;;;;;;;19.35;32.24;102111.31;1784826;80;21018;-72
2021/03/31 09:13:35;;;;;;;11.30;7.17;;;;;;;19.68;32.32;102107.97;1785228;80;21491;-73
2021/03/31 09:18:50;;;;;;;13.00;8.35;;;;;;;20.15;31.30;102098.70;1847719;76;22688;-71
2021/03/31 09:21:27;;;;;;;9.75;7.75;;;;;;;20.19;30.80;102099.31;1817995;79;20923;-72
2021/03/31 09:23:57;;;;;;;11.22;7.80;;;;;;;20.05;30.78;102097.69;1817864;79;20926;-74
2021/03/31 09:26:26;;;;;;;11.08;8.20;;;;;;;19.86;31.54;102089.78;1817925;79;20939;-73
2021/03/31 09:28:54;;;;;;;9.45;8.43;;;;;;;19.91;31.74;102092.09;1817941;79;21167;-72
2021/03/31 09:31:24;;;;;;;12.45;7.83;;;;;;;20.08;31.71;102081.50;1817832;79;20950;-73
2021/03/31 09:33:54;;;;;;;13.70;7.10;;;;;;;20.27;31.50;102087.56;1818062;79;20997;-75
2021/03/31 09:36:23;;;;;;;10.20;7.10;;;;;;;20.50;30.69;102082.62;1786996;79;22811;-74
2021/03/31 09:38:55;;;;;;;8.75;7.85;;;;;;;20.42;30.59;102078.86;1817827;77;20922;-72
2021/03/31 09:41:25;;;;;;;8.88;7.08;;;;;;;20.21;30.96;102075.58;1816421;79;21428;-73
2021/03/31 09:43:53;;;;;;;12.60;7.67;;;;;;;20.39;31.04;102069.30;1817603;79;21591;-74
2021/03/31 09:46:26;;;;;;;9.78;7.22;;;;;;;20.53;30.00;102065.53;1786566;79;20966;-75
2021/03/31 09:48:54;;;;;;;10.85;7.45;;;;;;;20.48;31.34;102063.73;1818177;79;21398;-72
2021/03/31 09:51:23;;;;;;;12.43;8.08;;;;;;;20.47;30.17;102064.19;1817813;77;20978;-74
2021/03/31 09:53:51;;;;;;;9.40;7.85;;;;;;;20.40;31.10;102058.15;1817891;79;20983;-73
2021/03/31 09:56:19;;;;;;;10.72;8.50;;;;;;;20.43;31.00;102053.90;1817868;79;20911;-73
2021/03/31 09:58:48;;;;;;;14.23;7.85;;;;;;;20.42;30.79;102054.39;1817903;79;21408;-73
2021/03/31 10:01:17;;;;;;;10.45;7.33;;;;;;;20.37;30.57;102057.07;1817976;78;22278;-72
2021/03/31 10:03:46;;;;;;;11.70;8.05;;;;;;;20.22;30.68;102056.45;1817867;79;21373;-73
2021/03/31 10:06:26;;;;;;;14.45;8.15;;;;;;;20.08;30.92;102050.37;1817997;79;21341;-72
2021/03/31 10:08:55;;;;;;;13.05;8.18;;;;;;;20.03;30.96;102054.34;1817820;78;20990;-73
2021/03/31 10:11:35;;;;;;;8.73;7.55;;;;;;;20.04;30.92;102050.25;1817884;79;21023;-73
2021/03/31 10:14:19;;;;;;;10.40;8.53;;;;;;;19.96;31.08;102048.64;1817839;79;21290;-74
2021/03/31 10:16:50;;;;;;;11.45;8.90;;;;;;;19.99;31.32;102040.44;1817652;77;20934;-72
2021/03/31 10:19:19;;;;;;;12.25;9.00;;;;;;;19.97;31.45;102037.54;1787416;79;21654;-72
2021/03/31 10:21:49;;;;;;;10.58;8.55;;;;;;;19.98;31.12;102033.89;1787508;79;20895;-75
2021/03/31 10:24:24;;;;;;;13.32;8.68;;;;;;;19.95;30.83;102038.13;1817870;78;21462;-72
2021/03/31 10:26:54;;;;;;;15.18;9.00;;;;;;;19.93;30.98;102034.73;1813700;77;22352;-71
2021/03/31 10:29:25;;;;;;;12.10;9.00;;;;;;;19.99;31.44;102029.79;1812872;79;20958;-74
2021/03/31 10:31:57;;;;;;;11.50;8.08;;;;;;;20.16;31.04;102026.28;1812753;79;20967;-73
2021/03/31 10:34:41;;;;;;;9.65;7.58;;;;;;;20.30;30.90;102026.06;1786573;79;21504;-70
2021/03/31 10:37:29;;;;;;;11.00;6.95;;;;;;;20.33;30.68;102024.97;1817354;78;20931;-70
2021/03/31 10:54:06;;;;;;;12.35;8.43;;;;;;;20.15;30.92;102008.12;1817407;79;22715;-72
2021/03/31 10:56:35;;;;;;;10.75;7.40;;;;;;;20.00;30.65;102000.84;1817117;78;21563;-72
2021/03/31 10:59:05;;;;;;;13.75;8.10;;;;;;;19.74;31.24;102006.85;1817219;78;20931;-73
2021/03/31 11:01:34;;;;;;;9.45;7.35;;;;;;;19.54;31.53;101993.73;1817329;79;21002;-74
2021/03/31 11:04:03;;;;;;;15.78;8.70;;;;;;;19.49;32.14;101989.71;1817265;79;20998;-74
2021/03/31 11:06:32;;;;;;;13.60;7.95;;;;;;;19.43;32.14;101991.02;1817447;78;21123;-74
2021/03/31 11:09:00;;;;;;;15.25;7.83;;;;;;;19.53;31.96;101995.17;1817144;79;21057;-75
2021/03/31 11:11:29;;;;;;;9.98;7.40;;;;;;;19.54;32.10;101988.88;1817191;79;21010;-77
2021/03/31 11:13:57;;;;;;;8.68;7.75;;;;;;;19.62;32.18;101982.00;1817213;77;21436;-75
2021/03/31 11:16:27;;;;;;;15.08;7.33;;;;;;;19.80;32.21;101983.76;1817174;79;21348;-76
2021/03/31 11:19:07;;;;;;;12.30;8.20;;;;;;;19.97;32.51;101972.30;1816990;78;22348;-74
2021/03/31 11:27:05;;;;;;;13.62;7.03;;;;;;;20.59;31.40;101961.14;1817142;77;20974;-75
2021/03/31 11:29:35;;;;;;;15.48;7.70;;;;;;;20.94;31.37;101961.38;1817223;79;21018;-74
2021/03/31 11:32:06;;;;;;;11.57;8.20;;;;;;;21.09;30.58;101953.94;1817145;77;21895;-70
2021/03/31 11:34:34;;;;;;;11.97;9.35;;;;;;;21.08;30.58;101949.59;1817123;78;21049;-73
2021/03/31 11:37:04;;;;;;;16.17;10.55;;;;;;;21.12;30.43;101942.99;1817126;79;21416;-74
2021/03/31 11:39:32;;;;;;;11.15;7.37;;;;;;;21.07;30.50;101935.88;1817182;78;20958;-73
2021/03/31 11:42:01;;;;;;;12.88;7.47;;;;;;;21.01;30.35;101939.91;1786266;79;21012;-73
2021/03/31 11:44:30;;;;;;;10.98;7.33;;;;;;;20.90;30.50;101928.80;1817129;79;21510;-72
2021/03/31 11:46:58;;;;;;;10.18;7.78;;;;;;;20.93;30.97;101922.86;1817207;77;20923;-72
2021/03/31 11:49:26;;;;;;;11.40;7.55;;;;;;;20.94;30.60;101918.70;1817255;79;21381;-71
2021/03/31 11:51:54;;;;;;;13.03;8.60;;;;;;;20.89;30.04;101920.92;1817176;79;21018;-74
2021/03/31 11:54:23;;;;;;;14.13;10.08;;;;;;;20.76;29.92;101913.58;1817231;78;21412;-71
2021/03/31 11:56:51;;;;;;;14.75;9.45;;;;;;;20.55;29.72;101905.02;1817177;79;22374;-73
2021/03/31 11:59:20;;;;;;;13.58;9.80;;;;;;;20.38;30.70;101902.88;1817167;79;20951;-75